sensor_id;sensor_type;location;lat;lon;timestamp;P1;durP1;ratioP1;P2;durP2;ratioP2
18217;SDS011;9234;49.344;11.120;2023-06-10T00:00:23;8.35;;;7.13;;
18217;SDS011;9234;49.344;11.120;2023-06-10T00:02:52;8.27;;;7.05;;
18217;SDS011;9234;49.344;11.120;2023-06-10T00:05:20;8.10;;;7.20;;
18217;SDS011;9234;49.344;11.120;2023-06-10T00:07:50;7.53;;;6.82;;
18217;SDS011;9234;49.344;11.120;2023-06-10T00:10:21;8.10;;;7.30;;
18217;SDS011;9234;49.344;11.120;2023-06-10T00:12:50;7.82;;;7.13;;
18217;SDS011;9234;49.344;11.120;2023-06-10T00:15:19;8.70;;;6.93;;
18217;SDS011;9234;49.344;11.120;2023-06-10T00:17:47;8.27;;;6.80;;
18217;SDS011;9234;49.344;11.120;2023-06-10T00:20:16;8.07;;;6.45;;
18217;SDS011;9234;49.344;11.120;2023-06-10T00:22:44;8.05;;;7.25;;
18217;SDS011;9234;49.344;11.120;2023-06-10T00:25:14;8.00;;;6.78;;
18217;SDS011;9234;49.344;11.120;2023-06-10T00:27:43;7.93;;;7.15;;
18217;SDS011;9234;49.344;11.120;2023-06-10T00:30:13;7.97;;;7.15;;
18217;SDS011;9234;49.344;11.120;2023-06-10T00:32:41;8.15;;;7.38;;
18217;SDS011;9234;49.344;11.120;2023-06-10T00:35:10;8.30;;;7.30;;
18217;SDS011;9234;49.344;11.120;2023-06-10T00:37:38;7.40;;;6.80;;
18217;SDS011;9234;49.344;11.120;2023-06-10T00:40:08;8.10;;;7.40;;
18217;SDS011;9234;49.344;11.120;2023-06-10T00:42:39;8.20;;;7.40;;
18217;SDS011;9234;49.344;11.120;2023-06-10T00:45:07;7.47;;;6.82;;
18217;SDS011;9234;49.344;11.120;2023-06-10T00:47:37;7.43;;;6.72;;
18217;SDS011;9234;49.344;11.120;2023-06-10T00:50:06;7.57;;;6.80;;
18217;SDS011;9234;49.344;11.120;2023-06-10T00:52:35;8.27;;;6.90;;
18217;SDS011;9234;49.344;11.120;2023-06-10T00:55:04;7.75;;;6.97;;
18217;SDS011;9234;49.344;11.120;2023-06-10T00:57:35;9.57;;;6.40;;
18217;SDS011;9234;49.344;11.120;2023-06-10T01:00:07;7.28;;;6.40;;
18217;SDS011;9234;49.344;11.120;2023-06-10T01:02:37;8.13;;;6.32;;
18217;SDS011;9234;49.344;11.120;2023-06-10T01:05:06;8.43;;;6.88;;
18217;SDS011;9234;49.344;11.120;2023-06-10T01:07:37;8.75;;;6.88;;
18217;SDS011;9234;49.344;11.120;2023-06-10T01:10:15;7.82;;;6.55;;
18217;SDS011;9234;49.344;11.120;2023-06-10T01:12:52;8.00;;;6.63;;
18217;SDS011;9234;49.344;11.120;2023-06-10T01:15:30;8.23;;;7.30;;
18217;SDS011;9234;49.344;11.120;2023-06-10T01:18:00;8.45;;;7.60;;
18217;SDS011;9234;49.344;11.120;2023-06-10T01:20:31;7.97;;;7.00;;
18217;SDS011;9234;49.344;11.120;2023-06-10T01:23:01;7.38;;;6.50;;
18217;SDS011;9234;49.344;11.120;2023-06-10T01:25:30;8.27;;;7.10;;
18217;SDS011;9234;49.344;11.120;2023-06-10T01:28:03;8.02;;;7.22;;
18217;SDS011;9234;49.344;11.120;2023-06-10T01:30:40;10.02;;;6.80;;
18217;SDS011;9234;49.344;11.120;2023-06-10T01:33:17;7.38;;;6.60;;
18217;SDS011;9234;49.344;11.120;2023-06-10T01:35:55;7.32;;;6.63;;
18217;SDS011;9234;49.344;11.120;2023-06-10T01:38:29;8.15;;;7.35;;
18217;SDS011;9234;49.344;11.120;2023-06-10T01:41:04;7.70;;;6.90;;
18217;SDS011;9234;49.344;11.120;2023-06-10T01:43:34;8.40;;;6.75;;
18217;SDS011;9234;49.344;11.120;2023-06-10T01:46:05;8.18;;;7.10;;
18217;SDS011;9234;49.344;11.120;2023-06-10T01:48:34;8.20;;;7.38;;
18217;SDS011;9234;49.344;11.120;2023-06-10T01:51:02;8.77;;;7.88;;
18217;SDS011;9234;49.344;11.120;2023-06-10T01:53:32;7.47;;;6.78;;
18217;SDS011;9234;49.344;11.120;2023-06-10T01:56:01;9.50;;;7.75;;
18217;SDS011;9234;49.344;11.120;2023-06-10T01:58:29;7.65;;;6.95;;
18217;SDS011;9234;49.344;11.120;2023-06-10T02:00:58;7.78;;;7.07;;
18217;SDS011;9234;49.344;11.120;2023-06-10T02:03:26;7.35;;;6.68;;
18217;SDS011;9234;49.344;11.120;2023-06-10T02:05:55;8.02;;;7.22;;
18217;SDS011;9234;49.344;11.120;2023-06-10T02:08:23;8.32;;;7.53;;
18217;SDS011;9234;49.344;11.120;2023-06-10T02:10:53;9.07;;;7.45;;
18217;SDS011;9234;49.344;11.120;2023-06-10T02:13:21;7.35;;;6.65;;
18217;SDS011;9234;49.344;11.120;2023-06-10T02:15:53;7.82;;;7.03;;
18217;SDS011;9234;49.344;11.120;2023-06-10T02:18:21;9.48;;;7.95;;
18217;SDS011;9234;49.344;11.120;2023-06-10T02:20:49;8.20;;;7.40;;
18217;SDS011;9234;49.344;11.120;2023-06-10T02:23:18;9.82;;;6.47;;
18217;SDS011;9234;49.344;11.120;2023-06-10T02:25:46;7.45;;;6.75;;
18217;SDS011;9234;49.344;11.120;2023-06-10T02:28:16;9.73;;;7.25;;
18217;SDS011;9234;49.344;11.120;2023-06-10T02:30:44;9.63;;;7.05;;
18217;SDS011;9234;49.344;11.120;2023-06-10T02:33:14;7.32;;;6.63;;
18217;SDS011;9234;49.344;11.120;2023-06-10T02:35:43;7.63;;;6.82;;
18217;SDS011;9234;49.344;11.120;2023-06-10T02:38:12;8.10;;;7.30;;
18217;SDS011;9234;49.344;11.120;2023-06-10T02:40:40;8.45;;;6.57;;
18217;SDS011;9234;49.344;11.120;2023-06-10T02:43:09;8.95;;;6.75;;
18217;SDS011;9234;49.344;11.120;2023-06-10T02:45:39;8.20;;;6.75;;
18217;SDS011;9234;49.344;11.120;2023-06-10T02:48:08;6.47;;;5.88;;
18217;SDS011;9234;49.344;11.120;2023-06-10T02:50:36;8.23;;;6.68;;
18217;SDS011;9234;49.344;11.120;2023-06-10T02:53:16;7.20;;;6.05;;
18217;SDS011;9234;49.344;11.120;2023-06-10T02:55:50;10.50;;;7.00;;
18217;SDS011;9234;49.344;11.120;2023-06-10T02:58:19;7.75;;;6.85;;
18217;SDS011;9234;49.344;11.120;2023-06-10T03:00:50;8.00;;;7.20;;
18217;SDS011;9234;49.344;11.120;2023-06-10T03:03:18;8.73;;;6.43;;
18217;SDS011;9234;49.344;11.120;2023-06-10T03:05:59;7.78;;;7.07;;
18217;SDS011;9234;49.344;11.120;2023-06-10T03:08:28;7.45;;;6.68;;
18217;SDS011;9234;49.344;11.120;2023-06-10T03:10:59;10.27;;;7.35;;
18217;SDS011;9234;49.344;11.120;2023-06-10T03:13:28;7.93;;;6.35;;
18217;SDS011;9234;49.344;11.120;2023-06-10T03:15:58;9.40;;;7.80;;
18217;SDS011;9234;49.344;11.120;2023-06-10T03:18:27;7.82;;;7.03;;
18217;SDS011;9234;49.344;11.120;2023-06-10T03:20:56;8.00;;;6.93;;
18217;SDS011;9234;49.344;11.120;2023-06-10T03:23:26;7.63;;;6.95;;
18217;SDS011;9234;49.344;11.120;2023-06-10T03:25:55;8.30;;;7.15;;
18217;SDS011;9234;49.344;11.120;2023-06-10T03:28:24;10.88;;;7.45;;
18217;SDS011;9234;49.344;11.120;2023-06-10T03:30:52;8.80;;;7.55;;
18217;SDS011;9234;49.344;11.120;2023-06-10T03:33:24;8.40;;;7.57;;
18217;SDS011;9234;49.344;11.120;2023-06-10T03:35:53;8.35;;;7.55;;
18217;SDS011;9234;49.344;11.120;2023-06-10T03:38:22;7.75;;;7.03;;
18217;SDS011;9234;49.344;11.120;2023-06-10T03:40:52;9.75;;;7.28;;
18217;SDS011;9234;49.344;11.120;2023-06-10T03:43:20;8.20;;;7.50;;
18217;SDS011;9234;49.344;11.120;2023-06-10T03:45:50;8.57;;;6.68;;
18217;SDS011;9234;49.344;11.120;2023-06-10T03:48:19;9.40;;;7.80;;
18217;SDS011;9234;49.344;11.120;2023-06-10T03:50:52;7.93;;;7.13;;
18217;SDS011;9234;49.344;11.120;2023-06-10T03:53:21;7.93;;;7.13;;
18217;SDS011;9234;49.344;11.120;2023-06-10T03:55:50;8.32;;;6.85;;
18217;SDS011;9234;49.344;11.120;2023-06-10T03:58:22;8.13;;;7.35;;
18217;SDS011;9234;49.344;11.120;2023-06-10T04:00:50;8.90;;;8.00;;
18217;SDS011;9234;49.344;11.120;2023-06-10T04:03:28;9.50;;;7.45;;
18217;SDS011;9234;49.344;11.120;2023-06-10T04:05:58;7.65;;;6.93;;
18217;SDS011;9234;49.344;11.120;2023-06-10T04:08:26;7.97;;;7.28;;
18217;SDS011;9234;49.344;11.120;2023-06-10T04:10:55;8.05;;;7.25;;
18217;SDS011;9234;49.344;11.120;2023-06-10T04:13:25;8.95;;;7.55;;
18217;SDS011;9234;49.344;11.120;2023-06-10T04:15:56;9.75;;;7.97;;
18217;SDS011;9234;49.344;11.120;2023-06-10T04:18:25;8.20;;;7.40;;
18217;SDS011;9234;49.344;11.120;2023-06-10T04:20:58;9.30;;;8.07;;
18217;SDS011;9234;49.344;11.120;2023-06-10T04:23:28;7.57;;;6.88;;
18217;SDS011;9234;49.344;11.120;2023-06-10T04:25:57;9.13;;;8.23;;
18217;SDS011;9234;49.344;11.120;2023-06-10T04:28:25;12.35;;;9.07;;
18217;SDS011;9234;49.344;11.120;2023-06-10T04:30:55;10.90;;;9.80;;
18217;SDS011;9234;49.344;11.120;2023-06-10T04:33:24;11.98;;;9.90;;
18217;SDS011;9234;49.344;11.120;2023-06-10T04:35:52;10.95;;;9.85;;
18217;SDS011;9234;49.344;11.120;2023-06-10T04:38:24;11.13;;;9.02;;
18217;SDS011;9234;49.344;11.120;2023-06-10T04:40:52;11.30;;;10.20;;
18217;SDS011;9234;49.344;11.120;2023-06-10T04:43:22;10.13;;;9.05;;
18217;SDS011;9234;49.344;11.120;2023-06-10T04:45:50;11.25;;;10.15;;
18217;SDS011;9234;49.344;11.120;2023-06-10T04:48:18;10.90;;;9.63;;
18217;SDS011;9234;49.344;11.120;2023-06-10T04:50:46;11.18;;;10.18;;
18217;SDS011;9234;49.344;11.120;2023-06-10T04:53:15;11.30;;;10.20;;
18217;SDS011;9234;49.344;11.120;2023-06-10T04:55:46;10.25;;;9.25;;
18217;SDS011;9234;49.344;11.120;2023-06-10T04:58:15;11.18;;;10.07;;
18217;SDS011;9234;49.344;11.120;2023-06-10T05:00:43;11.40;;;9.75;;
18217;SDS011;9234;49.344;11.120;2023-06-10T05:03:12;10.82;;;9.73;;
18217;SDS011;9234;49.344;11.120;2023-06-10T05:05:40;11.85;;;10.23;;
18217;SDS011;9234;49.344;11.120;2023-06-10T05:08:08;10.63;;;9.60;;
18217;SDS011;9234;49.344;11.120;2023-06-10T05:10:36;10.10;;;8.93;;
18217;SDS011;9234;49.344;11.120;2023-06-10T05:13:07;10.55;;;9.55;;
18217;SDS011;9234;49.344;11.120;2023-06-10T05:15:35;10.50;;;9.50;;
18217;SDS011;9234;49.344;11.120;2023-06-10T05:18:03;10.07;;;8.88;;
18217;SDS011;9234;49.344;11.120;2023-06-10T05:20:32;10.07;;;9.05;;
18217;SDS011;9234;49.344;11.120;2023-06-10T05:23:00;11.13;;;9.13;;
18217;SDS011;9234;49.344;11.120;2023-06-10T05:25:30;10.07;;;9.07;;
18217;SDS011;9234;49.344;11.120;2023-06-10T05:27:58;10.77;;;9.57;;
18217;SDS011;9234;49.344;11.120;2023-06-10T05:30:28;11.07;;;9.40;;
18217;SDS011;9234;49.344;11.120;2023-06-10T05:32:57;10.60;;;9.60;;
18217;SDS011;9234;49.344;11.120;2023-06-10T05:35:25;11.13;;;10.13;;
18217;SDS011;9234;49.344;11.120;2023-06-10T05:37:53;9.70;;;8.73;;
18217;SDS011;9234;49.344;11.120;2023-06-10T05:40:21;10.30;;;9.38;;
18217;SDS011;9234;49.344;11.120;2023-06-10T05:42:50;10.95;;;9.68;;
18217;SDS011;9234;49.344;11.120;2023-06-10T05:45:18;11.70;;;10.30;;
18217;SDS011;9234;49.344;11.120;2023-06-10T05:47:48;9.63;;;8.65;;
18217;SDS011;9234;49.344;11.120;2023-06-10T05:50:17;10.40;;;9.05;;
18217;SDS011;9234;49.344;11.120;2023-06-10T05:52:45;9.55;;;8.70;;
18217;SDS011;9234;49.344;11.120;2023-06-10T05:55:14;8.95;;;8.15;;
18217;SDS011;9234;49.344;11.120;2023-06-10T05:57:42;10.02;;;8.90;;
18217;SDS011;9234;49.344;11.120;2023-06-10T06:00:10;10.13;;;8.85;;
18217;SDS011;9234;49.344;11.120;2023-06-10T06:02:40;10.80;;;9.77;;
18217;SDS011;9234;49.344;11.120;2023-06-10T06:05:10;9.40;;;8.50;;
18217;SDS011;9234;49.344;11.120;2023-06-10T06:07:39;10.07;;;9.18;;
18217;SDS011;9234;49.344;11.120;2023-06-10T06:10:07;9.55;;;8.75;;
18217;SDS011;9234;49.344;11.120;2023-06-10T06:12:36;8.65;;;7.85;;
18217;SDS011;9234;49.344;11.120;2023-06-10T06:15:05;8.32;;;7.70;;
18217;SDS011;9234;49.344;11.120;2023-06-10T06:17:35;9.40;;;8.50;;
18217;SDS011;9234;49.344;11.120;2023-06-10T06:20:04;8.05;;;7.35;;
18217;SDS011;9234;49.344;11.120;2023-06-10T06:22:36;7.78;;;7.07;;
18217;SDS011;9234;49.344;11.120;2023-06-10T06:25:04;8.45;;;7.75;;
18217;SDS011;9234;49.344;11.120;2023-06-10T06:27:34;8.07;;;7.38;;
18217;SDS011;9234;49.344;11.120;2023-06-10T06:30:02;9.10;;;7.22;;
18217;SDS011;9234;49.344;11.120;2023-06-10T06:32:32;8.55;;;7.18;;
18217;SDS011;9234;49.344;11.120;2023-06-10T06:35:01;7.53;;;6.82;;
18217;SDS011;9234;49.344;11.120;2023-06-10T06:37:31;7.40;;;6.63;;
18217;SDS011;9234;49.344;11.120;2023-06-10T06:40:14;7.72;;;6.95;;
18217;SDS011;9234;49.344;11.120;2023-06-10T06:42:44;6.40;;;5.80;;
18217;SDS011;9234;49.344;11.120;2023-06-10T06:45:28;6.68;;;6.10;;
18217;SDS011;9234;49.344;11.120;2023-06-10T06:47:56;7.82;;;6.63;;
18217;SDS011;9234;49.344;11.120;2023-06-10T06:50:25;7.22;;;6.63;;
18217;SDS011;9234;49.344;11.120;2023-06-10T06:52:53;8.30;;;6.57;;
18217;SDS011;9234;49.344;11.120;2023-06-10T06:55:23;9.18;;;6.35;;
18217;SDS011;9234;49.344;11.120;2023-06-10T06:57:51;6.82;;;6.07;;
18217;SDS011;9234;49.344;11.120;2023-06-10T07:00:19;6.28;;;5.68;;
18217;SDS011;9234;49.344;11.120;2023-06-10T07:02:48;6.97;;;6.28;;
18217;SDS011;9234;49.344;11.120;2023-06-10T07:05:16;6.47;;;5.88;;
18217;SDS011;9234;49.344;11.120;2023-06-10T07:07:45;10.05;;;6.30;;
18217;SDS011;9234;49.344;11.120;2023-06-10T07:10:13;6.22;;;5.70;;
18217;SDS011;9234;49.344;11.120;2023-06-10T07:12:43;6.25;;;5.65;;
18217;SDS011;9234;49.344;11.120;2023-06-10T07:15:11;6.78;;;6.18;;
18217;SDS011;9234;49.344;11.120;2023-06-10T07:17:39;7.28;;;6.45;;
18217;SDS011;9234;49.344;11.120;2023-06-10T07:20:09;6.68;;;6.07;;
18217;SDS011;9234;49.344;11.120;2023-06-10T07:22:38;6.57;;;6.07;;
18217;SDS011;9234;49.344;11.120;2023-06-10T07:25:07;6.63;;;5.38;;
18217;SDS011;9234;49.344;11.120;2023-06-10T07:27:36;7.03;;;6.40;;
18217;SDS011;9234;49.344;11.120;2023-06-10T07:30:07;6.95;;;6.35;;
18217;SDS011;9234;49.344;11.120;2023-06-10T07:32:37;6.93;;;6.32;;
18217;SDS011;9234;49.344;11.120;2023-06-10T07:35:08;6.85;;;6.30;;
18217;SDS011;9234;49.344;11.120;2023-06-10T07:37:38;6.82;;;6.22;;
18217;SDS011;9234;49.344;11.120;2023-06-10T07:40:06;6.15;;;5.65;;
18217;SDS011;9234;49.344;11.120;2023-06-10T07:42:36;6.45;;;5.85;;
18217;SDS011;9234;49.344;11.120;2023-06-10T07:45:04;7.15;;;6.22;;
18217;SDS011;9234;49.344;11.120;2023-06-10T07:47:35;6.65;;;6.10;;
18217;SDS011;9234;49.344;11.120;2023-06-10T07:50:04;5.93;;;5.43;;
18217;SDS011;9234;49.344;11.120;2023-06-10T07:52:33;6.13;;;5.40;;
18217;SDS011;9234;49.344;11.120;2023-06-10T07:55:01;5.82;;;5.32;;
18217;SDS011;9234;49.344;11.120;2023-06-10T07:57:30;6.25;;;5.65;;
18217;SDS011;9234;49.344;11.120;2023-06-10T08:00:01;5.97;;;5.35;;
18217;SDS011;9234;49.344;11.120;2023-06-10T08:02:39;6.30;;;5.70;;
18217;SDS011;9234;49.344;11.120;2023-06-10T08:05:07;6.93;;;5.07;;
18217;SDS011;9234;49.344;11.120;2023-06-10T08:07:36;5.32;;;4.93;;
18217;SDS011;9234;49.344;11.120;2023-06-10T08:10:05;5.43;;;4.93;;
18217;SDS011;9234;49.344;11.120;2023-06-10T08:12:34;4.97;;;4.57;;
18217;SDS011;9234;49.344;11.120;2023-06-10T08:15:04;5.57;;;5.07;;
18217;SDS011;9234;49.344;11.120;2023-06-10T08:17:34;5.03;;;4.53;;
18217;SDS011;9234;49.344;11.120;2023-06-10T08:20:04;4.85;;;4.45;;
18217;SDS011;9234;49.344;11.120;2023-06-10T08:22:34;5.63;;;4.90;;
18217;SDS011;9234;49.344;11.120;2023-06-10T08:25:02;4.65;;;4.25;;
18217;SDS011;9234;49.344;11.120;2023-06-10T08:27:32;5.18;;;4.72;;
18217;SDS011;9234;49.344;11.120;2023-06-10T08:30:00;5.03;;;4.63;;
18217;SDS011;9234;49.344;11.120;2023-06-10T08:32:29;5.95;;;4.40;;
18217;SDS011;9234;49.344;11.120;2023-06-10T08:34:57;4.65;;;4.10;;
18217;SDS011;9234;49.344;11.120;2023-06-10T08:37:27;4.90;;;4.50;;
18217;SDS011;9234;49.344;11.120;2023-06-10T08:39:57;4.50;;;4.20;;
18217;SDS011;9234;49.344;11.120;2023-06-10T08:42:27;4.95;;;4.57;;
18217;SDS011;9234;49.344;11.120;2023-06-10T08:45:01;4.30;;;4.00;;
18217;SDS011;9234;49.344;11.120;2023-06-10T08:47:32;4.20;;;3.90;;
18217;SDS011;9234;49.344;11.120;2023-06-10T08:50:04;4.30;;;3.90;;
18217;SDS011;9234;49.344;11.120;2023-06-10T08:52:40;4.80;;;3.92;;
18217;SDS011;9234;49.344;11.120;2023-06-10T08:55:12;4.50;;;4.13;;
18217;SDS011;9234;49.344;11.120;2023-06-10T08:57:46;4.20;;;3.88;;
18217;SDS011;9234;49.344;11.120;2023-06-10T09:00:15;4.40;;;4.10;;
18217;SDS011;9234;49.344;11.120;2023-06-10T09:02:44;4.72;;;4.32;;
18217;SDS011;9234;49.344;11.120;2023-06-10T09:05:14;4.50;;;4.10;;
18217;SDS011;9234;49.344;11.120;2023-06-10T09:07:45;5.30;;;4.80;;
18217;SDS011;9234;49.344;11.120;2023-06-10T09:10:15;4.78;;;4.38;;
18217;SDS011;9234;49.344;11.120;2023-06-10T09:12:44;6.88;;;4.50;;
18217;SDS011;9234;49.344;11.120;2023-06-10T09:15:12;6.65;;;4.68;;
18217;SDS011;9234;49.344;11.120;2023-06-10T09:17:43;4.97;;;4.57;;
18217;SDS011;9234;49.344;11.120;2023-06-10T09:20:12;5.18;;;4.78;;
18217;SDS011;9234;49.344;11.120;2023-06-10T09:22:41;5.05;;;4.65;;
18217;SDS011;9234;49.344;11.120;2023-06-10T09:25:11;5.28;;;4.88;;
18217;SDS011;9234;49.344;11.120;2023-06-10T09:27:44;5.32;;;4.22;;
18217;SDS011;9234;49.344;11.120;2023-06-10T09:30:23;5.90;;;4.30;;
18217;SDS011;9234;49.344;11.120;2023-06-10T09:32:53;5.85;;;4.28;;
18217;SDS011;9234;49.344;11.120;2023-06-10T09:35:23;4.97;;;4.47;;
18217;SDS011;9234;49.344;11.120;2023-06-10T09:37:53;5.18;;;4.78;;
18217;SDS011;9234;49.344;11.120;2023-06-10T09:40:25;4.68;;;4.28;;
18217;SDS011;9234;49.344;11.120;2023-06-10T09:42:55;4.68;;;4.35;;
18217;SDS011;9234;49.344;11.120;2023-06-10T09:45:29;4.30;;;4.00;;
18217;SDS011;9234;49.344;11.120;2023-06-10T09:47:58;4.50;;;4.15;;
18217;SDS011;9234;49.344;11.120;2023-06-10T09:50:28;5.90;;;5.30;;
18217;SDS011;9234;49.344;11.120;2023-06-10T09:53:02;5.05;;;4.65;;
18217;SDS011;9234;49.344;11.120;2023-06-10T09:55:36;4.88;;;4.57;;
18217;SDS011;9234;49.344;11.120;2023-06-10T09:58:05;5.10;;;4.70;;
18217;SDS011;9234;49.344;11.120;2023-06-10T10:00:34;5.20;;;4.80;;
18217;SDS011;9234;49.344;11.120;2023-06-10T10:03:03;38.10;;;9.35;;
18217;SDS011;9234;49.344;11.120;2023-06-10T10:05:33;94.07;;;17.88;;
18217;SDS011;9234;49.344;11.120;2023-06-10T10:08:02;10.23;;;5.28;;
18217;SDS011;9234;49.344;11.120;2023-06-10T10:10:30;4.93;;;4.32;;
18217;SDS011;9234;49.344;11.120;2023-06-10T10:13:00;4.95;;;4.30;;
18217;SDS011;9234;49.344;11.120;2023-06-10T10:15:31;4.32;;;4.03;;
18217;SDS011;9234;49.344;11.120;2023-06-10T10:18:05;4.90;;;4.50;;
18217;SDS011;9234;49.344;11.120;2023-06-10T10:20:39;5.40;;;5.00;;
18217;SDS011;9234;49.344;11.120;2023-06-10T10:23:21;4.78;;;4.38;;
18217;SDS011;9234;49.344;11.120;2023-06-10T10:25:56;4.60;;;4.30;;
18217;SDS011;9234;49.344;11.120;2023-06-10T10:28:37;4.40;;;4.10;;
18217;SDS011;9234;49.344;11.120;2023-06-10T10:31:12;5.00;;;4.60;;
18217;SDS011;9234;49.344;11.120;2023-06-10T10:33:49;5.07;;;4.50;;
18217;SDS011;9234;49.344;11.120;2023-06-10T10:36:25;4.82;;;4.40;;
18217;SDS011;9234;49.344;11.120;2023-06-10T10:38:54;4.82;;;4.43;;
18217;SDS011;9234;49.344;11.120;2023-06-10T10:41:25;4.88;;;4.57;;
18217;SDS011;9234;49.344;11.120;2023-06-10T10:43:56;4.95;;;4.55;;
18217;SDS011;9234;49.344;11.120;2023-06-10T10:46:26;4.72;;;4.43;;
18217;SDS011;9234;49.344;11.120;2023-06-10T10:48:54;5.22;;;4.82;;
18217;SDS011;9234;49.344;11.120;2023-06-10T10:51:25;5.72;;;5.22;;
18217;SDS011;9234;49.344;11.120;2023-06-10T10:54:10;5.38;;;4.50;;
18217;SDS011;9234;49.344;11.120;2023-06-10T10:59:55;5.75;;;4.82;;
18217;SDS011;9234;49.344;11.120;2023-06-10T11:02:37;5.40;;;5.00;;
18217;SDS011;9234;49.344;11.120;2023-06-10T11:05:11;5.50;;;5.10;;
18217;SDS011;9234;49.344;11.120;2023-06-10T11:07:51;8.35;;;5.13;;
18217;SDS011;9234;49.344;11.120;2023-06-10T11:10:28;5.05;;;4.68;;
18217;SDS011;9234;49.344;11.120;2023-06-10T11:12:58;7.22;;;5.28;;
18217;SDS011;9234;49.344;11.120;2023-06-10T11:15:29;5.60;;;5.10;;
18217;SDS011;9234;49.344;11.120;2023-06-10T11:18:11;4.93;;;4.53;;
18217;SDS011;9234;49.344;11.120;2023-06-10T11:20:45;5.53;;;5.13;;
18217;SDS011;9234;49.344;11.120;2023-06-10T11:23:38;4.80;;;4.50;;
18217;SDS011;9234;49.344;11.120;2023-06-10T11:26:10;5.07;;;4.72;;
18217;SDS011;9234;49.344;11.120;2023-06-10T11:29:01;5.05;;;4.65;;
18217;SDS011;9234;49.344;11.120;2023-06-10T11:31:45;4.65;;;4.22;;
18217;SDS011;9234;49.344;11.120;2023-06-10T11:34:21;4.88;;;4.47;;
18217;SDS011;9234;49.344;11.120;2023-06-10T11:36:53;4.45;;;4.05;;
18217;SDS011;9234;49.344;11.120;2023-06-10T11:39:21;4.65;;;4.35;;
18217;SDS011;9234;49.344;11.120;2023-06-10T11:41:53;4.95;;;4.47;;
18217;SDS011;9234;49.344;11.120;2023-06-10T11:44:22;4.32;;;3.92;;
18217;SDS011;9234;49.344;11.120;2023-06-10T11:47:00;4.55;;;4.25;;
18217;SDS011;9234;49.344;11.120;2023-06-10T11:49:28;4.25;;;3.85;;
18217;SDS011;9234;49.344;11.120;2023-06-10T11:51:56;4.32;;;3.92;;
18217;SDS011;9234;49.344;11.120;2023-06-10T11:54:24;4.00;;;3.70;;
18217;SDS011;9234;49.344;11.120;2023-06-10T11:56:57;4.57;;;4.18;;
18217;SDS011;9234;49.344;11.120;2023-06-10T11:59:26;4.10;;;3.80;;
18217;SDS011;9234;49.344;11.120;2023-06-10T12:01:55;4.70;;;3.70;;
18217;SDS011;9234;49.344;11.120;2023-06-10T12:04:25;5.57;;;4.10;;
18217;SDS011;9234;49.344;11.120;2023-06-10T12:06:53;3.63;;;3.33;;
18217;SDS011;9234;49.344;11.120;2023-06-10T12:09:23;3.42;;;3.22;;
18217;SDS011;9234;49.344;11.120;2023-06-10T12:11:54;3.83;;;3.45;;
18217;SDS011;9234;49.344;11.120;2023-06-10T12:17:23;4.10;;;3.80;;
18217;SDS011;9234;49.344;11.120;2023-06-10T12:20:07;3.70;;;3.40;;
18217;SDS011;9234;49.344;11.120;2023-06-10T12:22:51;3.38;;;3.08;;
18217;SDS011;9234;49.344;11.120;2023-06-10T12:25:23;3.35;;;3.15;;
18217;SDS011;9234;49.344;11.120;2023-06-10T12:27:54;3.17;;;2.95;;
18217;SDS011;9234;49.344;11.120;2023-06-10T12:30:24;3.60;;;3.30;;
18217;SDS011;9234;49.344;11.120;2023-06-10T12:32:54;3.60;;;3.25;;
18217;SDS011;9234;49.344;11.120;2023-06-10T12:35:26;3.67;;;3.38;;
18217;SDS011;9234;49.344;11.120;2023-06-10T12:37:56;3.58;;;3.28;;
18217;SDS011;9234;49.344;11.120;2023-06-10T12:40:27;3.05;;;2.78;;
18217;SDS011;9234;49.344;11.120;2023-06-10T12:42:58;3.40;;;3.20;;
18217;SDS011;9234;49.344;11.120;2023-06-10T12:45:27;3.00;;;2.80;;
18217;SDS011;9234;49.344;11.120;2023-06-10T12:48:06;3.35;;;3.15;;
18217;SDS011;9234;49.344;11.120;2023-06-10T12:50:39;3.55;;;3.35;;
18217;SDS011;9234;49.344;11.120;2023-06-10T12:53:10;3.75;;;3.45;;
18217;SDS011;9234;49.344;11.120;2023-06-10T12:55:39;3.40;;;3.20;;
18217;SDS011;9234;49.344;11.120;2023-06-10T12:58:07;3.90;;;3.70;;
18217;SDS011;9234;49.344;11.120;2023-06-10T13:00:35;3.70;;;3.50;;
18217;SDS011;9234;49.344;11.120;2023-06-10T13:03:06;4.15;;;3.55;;
18217;SDS011;9234;49.344;11.120;2023-06-10T13:05:36;3.17;;;2.95;;
18217;SDS011;9234;49.344;11.120;2023-06-10T13:08:06;3.88;;;3.45;;
18217;SDS011;9234;49.344;11.120;2023-06-10T13:10:36;3.30;;;3.08;;
18217;SDS011;9234;49.344;11.120;2023-06-10T13:13:05;3.30;;;3.10;;
18217;SDS011;9234;49.344;11.120;2023-06-10T13:15:36;3.75;;;3.10;;
18217;SDS011;9234;49.344;11.120;2023-06-10T13:18:09;3.55;;;3.30;;
18217;SDS011;9234;49.344;11.120;2023-06-10T13:20:39;3.63;;;3.15;;
18217;SDS011;9234;49.344;11.120;2023-06-10T13:23:08;3.28;;;3.00;;
18217;SDS011;9234;49.344;11.120;2023-06-10T13:25:36;4.32;;;3.30;;
18217;SDS011;9234;49.344;11.120;2023-06-10T13:28:04;3.83;;;3.42;;
18217;SDS011;9234;49.344;11.120;2023-06-10T13:30:32;4.32;;;3.25;;
18217;SDS011;9234;49.344;11.120;2023-06-10T13:33:01;3.65;;;3.35;;
18217;SDS011;9234;49.344;11.120;2023-06-10T13:35:29;3.58;;;3.38;;
18217;SDS011;9234;49.344;11.120;2023-06-10T13:37:59;4.05;;;3.75;;
18217;SDS011;9234;49.344;11.120;2023-06-10T13:40:27;3.88;;;3.60;;
18217;SDS011;9234;49.344;11.120;2023-06-10T13:42:56;3.88;;;3.58;;
18217;SDS011;9234;49.344;11.120;2023-06-10T13:45:25;4.68;;;3.47;;
18217;SDS011;9234;49.344;11.120;2023-06-10T13:47:54;4.03;;;3.72;;
18217;SDS011;9234;49.344;11.120;2023-06-10T13:50:22;3.85;;;3.53;;
18217;SDS011;9234;49.344;11.120;2023-06-10T13:52:51;3.88;;;3.58;;
18217;SDS011;9234;49.344;11.120;2023-06-10T13:55:30;3.88;;;3.67;;
18217;SDS011;9234;49.344;11.120;2023-06-10T13:57:58;3.83;;;3.53;;
18217;SDS011;9234;49.344;11.120;2023-06-10T14:00:27;4.95;;;3.65;;
18217;SDS011;9234;49.344;11.120;2023-06-10T14:02:56;3.65;;;3.35;;
18217;SDS011;9234;49.344;11.120;2023-06-10T14:05:24;3.78;;;3.47;;
18217;SDS011;9234;49.344;11.120;2023-06-10T14:07:56;3.83;;;3.53;;
18217;SDS011;9234;49.344;11.120;2023-06-10T14:10:27;4.47;;;4.07;;
18217;SDS011;9234;49.344;11.120;2023-06-10T14:12:56;4.28;;;3.88;;
18217;SDS011;9234;49.344;11.120;2023-06-10T14:15:25;4.28;;;3.80;;
18217;SDS011;9234;49.344;11.120;2023-06-10T14:17:53;3.75;;;3.40;;
18217;SDS011;9234;49.344;11.120;2023-06-10T14:20:21;3.70;;;3.50;;
18217;SDS011;9234;49.344;11.120;2023-06-10T14:22:52;4.03;;;3.83;;
18217;SDS011;9234;49.344;11.120;2023-06-10T14:25:20;4.50;;;3.70;;
18217;SDS011;9234;49.344;11.120;2023-06-10T14:27:50;4.35;;;4.05;;
18217;SDS011;9234;49.344;11.120;2023-06-10T14:30:19;4.70;;;4.30;;
18217;SDS011;9234;49.344;11.120;2023-06-10T14:32:47;4.25;;;3.95;;
18217;SDS011;9234;49.344;11.120;2023-06-10T14:35:16;3.92;;;3.63;;
18217;SDS011;9234;49.344;11.120;2023-06-10T14:37:44;4.60;;;4.28;;
18217;SDS011;9234;49.344;11.120;2023-06-10T14:40:12;4.30;;;4.00;;
18217;SDS011;9234;49.344;11.120;2023-06-10T14:42:41;4.28;;;3.85;;
18217;SDS011;9234;49.344;11.120;2023-06-10T14:45:10;3.25;;;2.95;;
18217;SDS011;9234;49.344;11.120;2023-06-10T14:47:39;3.67;;;2.90;;
18217;SDS011;9234;49.344;11.120;2023-06-10T14:50:08;2.97;;;2.83;;
18217;SDS011;9234;49.344;11.120;2023-06-10T14:52:36;3.33;;;3.03;;
18217;SDS011;9234;49.344;11.120;2023-06-10T14:55:05;3.30;;;3.10;;
18217;SDS011;9234;49.344;11.120;2023-06-10T14:57:35;3.55;;;3.35;;
18217;SDS011;9234;49.344;11.120;2023-06-10T15:00:04;3.72;;;3.42;;
18217;SDS011;9234;49.344;11.120;2023-06-10T15:02:36;3.90;;;3.53;;
18217;SDS011;9234;49.344;11.120;2023-06-10T15:05:05;4.20;;;3.90;;
18217;SDS011;9234;49.344;11.120;2023-06-10T15:07:35;3.42;;;3.22;;
18217;SDS011;9234;49.344;11.120;2023-06-10T15:10:03;3.78;;;3.47;;